Chang Sheng — V3PK — position and weather

sailwx.info

Track history (hours):
 
Tides and Currents Weather Stations Pressure Air Temp Water Temp Dewpoint Dewpoint Depression Visibility Wind Speed Wind Dir Waves Ship Positions

Chang Sheng

Last reported at 2015-May-25 09:22 UTC. Time now 2015-May-25 19:37 UTC.
Position N 34°26' E 126°02'.

Length 86 m; draft 5.8 m.

Type: Cargo ship. MMSI: 312161000.

Date/timePositionNaut miles runAvg speedWind from/ knotsBaromVisibWave heightAir tempDewpointWater temp
2015-May-25 09:22N 34°26' E 126°02'117 8.5
2015-May-24 19:33N 34°00' E 128°21'9 8.8
2015-May-24 18:33N 34°00' E 128°32'9 9.0
2015-May-24 17:33N 34°00' E 128°42'9 8.9
2015-May-24 16:33N 34°01' E 128°53'32 9.4
2015-May-24 13:08N 34°01' E 129°32'19 9.4
2015-May-24 11:10N 34°01' E 129°54'6 9.2
2015-May-24 10:33N 34°01' E 130°01'19 9.1
2015-May-24 08:28N 34°02' E 130°24'18 8.9
2015-May-24 06:28N 34°02' E 130°45'  
2015-May-21 15:26N 34°55' E 140°01'7 8.5
2015-May-21 14:33N 34°59' E 140°09'9 8.1
2015-May-21 13:30N 35°04' E 140°17'9 7.1
2015-May-21 12:11N 35°10' E 140°26'6 6.5
2015-May-21 11:18N 35°15' E 140°30'14 7.8
2015-May-21 09:27N 35°26' E 140°41'7 7.6
2015-May-21 08:28N 35°32' E 140°47'25 6.5
2015-May-21 04:33N 35°57' E 140°42'2 0.3
2015-May-20 20:28N 35°55' E 140°40'0 0.0
2015-May-20 19:31N 35°55' E 140°40'0 0.0
2015-May-20 18:07N 35°55' E 140°40'0 0.0
2015-May-20 16:28N 35°55' E 140°40'0 0.0
2015-May-20 15:28N 35°55' E 140°40'0 0.0
2015-May-20 14:28N 35°55' E 140°40'0 0.0
2015-May-20 13:13N 35°55' E 140°40'0 0.0
2015-May-20 12:31N 35°55' E 140°40'0 0.0
2015-May-20 11:31N 35°55' E 140°40'0 0.0
2015-May-20 10:31N 35°55' E 140°40'0 0.0
2015-May-20 09:31N 35°55' E 140°40'0 0.0
2015-May-20 08:31N 35°55' E 140°40'0 0.0
2015-May-20 06:07N 35°55' E 140°40'0 0.0
2015-May-20 05:25N 35°55' E 140°40'0 0.0
2015-May-20 01:31N 35°55' E 140°40'0 0.0
2015-May-19 22:31N 35°55' E 140°40'0 0.0
2015-May-19 21:07N 35°55' E 140°40'0 0.1
2015-May-19 20:31N 35°55' E 140°40'0 0.0
2015-May-19 19:31N 35°55' E 140°40'0 0.0
2015-May-19 18:31N 35°55' E 140°40'0 0.0
2015-May-19 17:25N 35°55' E 140°40'0 0.0
2015-May-19 16:07N 35°55' E 140°40'0 0.0
2015-May-19 15:31N 35°55' E 140°40'0 0.0
2015-May-19 14:25N 35°55' E 140°40'0 0.0
2015-May-19 13:31N 35°55' E 140°40'0 0.0
2015-May-19 03:31N 35°55' E 140°40'0 0.0
2015-May-19 02:28N 35°55' E 140°40'0 0.0
2015-May-19 01:10N 35°55' E 140°40'0 0.0
2015-May-18 23:25N 35°55' E 140°40'0 0.0
2015-May-18 22:31N 35°55' E 140°40'0 0.0
2015-May-18 21:13N 35°55' E 140°40'0 0.1
2015-May-18 20:25N 35°55' E 140°40'0 0.1
2015-May-18 19:31N 35°55' E 140°40'0 0.0
2015-May-18 18:28N 35°55' E 140°40'0 0.0
2015-May-18 17:10N 35°55' E 140°40'0 0.0
2015-May-18 16:10N 35°55' E 140°40'0 0.0
2015-May-18 15:28N 35°55' E 140°40'0 0.0
2015-May-18 11:19N 35°55' E 140°40'0 0.0
2015-May-18 10:25N 35°55' E 140°40'0 0.0
2015-May-18 08:31N 35°55' E 140°40'0 0.0
2015-May-18 07:31N 35°55' E 140°40'0 0.0
2015-May-18 06:13N 35°55' E 140°40'0 0.0
2015-May-18 05:25N 35°55' E 140°40'0 0.0
2015-May-18 04:31N 35°55' E 140°40'0 0.0
2015-May-18 03:25N 35°55' E 140°40'0 0.1
2015-May-18 02:33N 35°55' E 140°40'5 4.9
2015-May-18 01:33N 35°60' E 140°43'18 8.5
2015-May-17 23:26N 35°47' E 140°59'8 7.6
2015-May-17 22:24N 35°40' E 141°04'8 9.8
2015-May-17 21:33N 35°36' E 140°56'10 9.6
2015-May-17 20:28N 35°30' E 140°45'9 9.6
2015-May-17 19:32N 35°22' E 140°39'1110.6
2015-May-17 18:33N 35°14' E 140°31'1211.1
2015-May-17 17:27N 35°05' E 140°21'910.7
2015-May-17 16:34N 34°60' E 140°11'1310.8
2015-May-17 15:20N 34°52' E 139°58'1010.2
2015-May-17 14:24N 34°48' E 139°48'8 9.7
2015-May-17 13:34N 34°44' E 139°39'12 9.9
2015-May-17 12:23N 34°38' E 139°27'224 8.8
2015-May-16 11:04N 34°01' E 134°59'5 9.6
2015-May-16 10:33N 34°06' E 134°59'10 9.5
2015-May-16 09:33N 34°16' E 134°59'9 8.8
2015-May-16 08:33N 34°25' E 135°00'9 9.0
2015-May-16 07:33N 34°33' E 135°03'7 6.6
2015-May-16 06:27N 34°35' E 134°54'  
Track history (hours):
 
Tides and Currents Weather Stations Pressure Air Temp Water Temp Dewpoint Dewpoint Depression Visibility Wind Speed Wind Dir Waves Ship Positions

Chang Sheng

Last reported at 2015-May-25 09:22 UTC. Time now 2015-May-25 19:37 UTC.
Position N 34°26' E 126°02'.

Length 86 m; draft 5.8 m.

Type: Cargo ship. MMSI: 312161000.

Date/timePositionNaut miles runAvg speedWind from/ knotsBaromVisibWave heightAir tempDewpointWater temp
2015-May-25 09:22N 34°26' E 126°02'117 8.5
2015-May-24 19:33N 34°00' E 128°21'9 8.8
2015-May-24 18:33N 34°00' E 128°32'9 9.0
2015-May-24 17:33N 34°00' E 128°42'9 8.9
2015-May-24 16:33N 34°01' E 128°53'32 9.4
2015-May-24 13:08N 34°01' E 129°32'19 9.4
2015-May-24 11:10N 34°01' E 129°54'6 9.2
2015-May-24 10:33N 34°01' E 130°01'19 9.1
2015-May-24 08:28N 34°02' E 130°24'18 8.9
2015-May-24 06:28N 34°02' E 130°45'  
2015-May-21 15:26N 34°55' E 140°01'7 8.5
2015-May-21 14:33N 34°59' E 140°09'9 8.1
2015-May-21 13:30N 35°04' E 140°17'9 7.1
2015-May-21 12:11N 35°10' E 140°26'6 6.5
2015-May-21 11:18N 35°15' E 140°30'14 7.8
2015-May-21 09:27N 35°26' E 140°41'7 7.6
2015-May-21 08:28N 35°32' E 140°47'25 6.5
2015-May-21 04:33N 35°57' E 140°42'2 0.3
2015-May-20 20:28N 35°55' E 140°40'0 0.0
2015-May-20 19:31N 35°55' E 140°40'0 0.0
2015-May-20 18:07N 35°55' E 140°40'0 0.0
2015-May-20 16:28N 35°55' E 140°40'0 0.0
2015-May-20 15:28N 35°55' E 140°40'0 0.0
2015-May-20 14:28N 35°55' E 140°40'0 0.0
2015-May-20 13:13N 35°55' E 140°40'0 0.0
2015-May-20 12:31N 35°55' E 140°40'0 0.0
2015-May-20 11:31N 35°55' E 140°40'0 0.0
2015-May-20 10:31N 35°55' E 140°40'0 0.0
2015-May-20 09:31N 35°55' E 140°40'0 0.0
2015-May-20 08:31N 35°55' E 140°40'0 0.0
2015-May-20 06:07N 35°55' E 140°40'0 0.0
2015-May-20 05:25N 35°55' E 140°40'0 0.0
2015-May-20 01:31N 35°55' E 140°40'0 0.0
2015-May-19 22:31N 35°55' E 140°40'0 0.0
2015-May-19 21:07N 35°55' E 140°40'0 0.1
2015-May-19 20:31N 35°55' E 140°40'0 0.0
2015-May-19 19:31N 35°55' E 140°40'0 0.0
2015-May-19 18:31N 35°55' E 140°40'0 0.0
2015-May-19 17:25N 35°55' E 140°40'0 0.0
2015-May-19 16:07N 35°55' E 140°40'0 0.0
2015-May-19 15:31N 35°55' E 140°40'0 0.0
2015-May-19 14:25N 35°55' E 140°40'0 0.0
2015-May-19 13:31N 35°55' E 140°40'0 0.0
2015-May-19 03:31N 35°55' E 140°40'0 0.0
2015-May-19 02:28N 35°55' E 140°40'0 0.0
2015-May-19 01:10N 35°55' E 140°40'0 0.0
2015-May-18 23:25N 35°55' E 140°40'0 0.0
2015-May-18 22:31N 35°55' E 140°40'0 0.0
2015-May-18 21:13N 35°55' E 140°40'0 0.1
2015-May-18 20:25N 35°55' E 140°40'0 0.1
2015-May-18 19:31N 35°55' E 140°40'0 0.0
2015-May-18 18:28N 35°55' E 140°40'0 0.0
2015-May-18 17:10N 35°55' E 140°40'0 0.0
2015-May-18 16:10N 35°55' E 140°40'0 0.0
2015-May-18 15:28N 35°55' E 140°40'0 0.0
2015-May-18 11:19N 35°55' E 140°40'0 0.0
2015-May-18 10:25N 35°55' E 140°40'0 0.0
2015-May-18 08:31N 35°55' E 140°40'0 0.0
2015-May-18 07:31N 35°55' E 140°40'0 0.0
2015-May-18 06:13N 35°55' E 140°40'0 0.0
2015-May-18 05:25N 35°55' E 140°40'0 0.0
2015-May-18 04:31N 35°55' E 140°40'0 0.0
2015-May-18 03:25N 35°55' E 140°40'0 0.1
2015-May-18 02:33N 35°55' E 140°40'5 4.9
2015-May-18 01:33N 35°60' E 140°43'18 8.5
2015-May-17 23:26N 35°47' E 140°59'8 7.6
2015-May-17 22:24N 35°40' E 141°04'8 9.8
2015-May-17 21:33N 35°36' E 140°56'10 9.6
2015-May-17 20:28N 35°30' E 140°45'9 9.6
2015-May-17 19:32N 35°22' E 140°39'1110.6
2015-May-17 18:33N 35°14' E 140°31'1211.1
2015-May-17 17:27N 35°05' E 140°21'910.7
2015-May-17 16:34N 34°60' E 140°11'1310.8
2015-May-17 15:20N 34°52' E 139°58'1010.2
2015-May-17 14:24N 34°48' E 139°48'8 9.7
2015-May-17 13:34N 34°44' E 139°39'12 9.9
2015-May-17 12:23N 34°38' E 139°27'224 8.8
2015-May-16 11:04N 34°01' E 134°59'5 9.6
2015-May-16 10:33N 34°06' E 134°59'10 9.5
2015-May-16 09:33N 34°16' E 134°59'9 8.8
2015-May-16 08:33N 34°25' E 135°00'9 9.0
2015-May-16 07:33N 34°33' E 135°03'7 6.6
2015-May-16 06:27N 34°35' E 134°54'  

Dump ship's entire track history